createdAt,value
2022-11-06T00:01:53.145Z,73.70
2022-11-06T00:06:58.019Z,73.40
2022-11-06T00:12:01.534Z,73.50
2022-11-06T00:17:05.155Z,73.50
2022-11-06T00:22:09.871Z,73.40
2022-11-06T00:27:13.505Z,73.30
2022-11-06T00:32:16.896Z,73.60
2022-11-06T00:37:21.646Z,73.70
2022-11-06T00:42:25.030Z,73.70
2022-11-06T00:47:28.403Z,73.90
2022-11-06T00:52:33.419Z,74.00
2022-11-06T00:57:36.822Z,73.80
2022-11-06T01:02:40.708Z,73.60
2022-11-06T01:07:45.499Z,73.40
2022-11-06T01:12:48.893Z,73.20
2022-11-06T01:17:52.307Z,73.30
2022-11-06T01:22:57.044Z,72.90
2022-11-06T01:28:00.441Z,72.80
2022-11-06T01:33:03.944Z,72.70
2022-11-06T01:38:08.681Z,72.80
2022-11-06T01:43:16.959Z,72.70
2022-11-06T01:48:24.475Z,72.90
2022-11-06T01:53:29.567Z,72.70
2022-11-06T01:58:35.481Z,72.40
2022-11-06T02:03:40.668Z,72.40
2022-11-06T02:08:45.515Z,72.40
2022-11-06T02:13:56.663Z,72.20
2022-11-06T02:19:21.354Z,72.40
2022-11-06T02:24:56.326Z,72.20
2022-11-06T02:30:05.465Z,71.90
2022-11-06T02:35:19.412Z,71.60
2022-11-06T02:40:25.981Z,71.50
2022-11-06T02:45:33.793Z,71.90
2022-11-06T02:50:45.526Z,72.10
2022-11-06T02:55:52.662Z,72.00
2022-11-06T03:01:02.377Z,72.20
2022-11-06T03:06:11.532Z,72.40
2022-11-06T03:11:18.282Z,72.30
2022-11-06T03:16:32.923Z,71.80
2022-11-06T03:21:44.431Z,71.80
2022-11-06T03:26:52.285Z,71.80
2022-11-06T03:32:02.512Z,71.80
2022-11-06T03:37:11.347Z,71.90
2022-11-06T03:42:18.323Z,72.00
2022-11-06T03:47:28.414Z,72.10
2022-11-06T03:52:36.635Z,72.00
2022-11-06T03:57:44.264Z,71.70
2022-11-06T04:03:04.765Z,71.30
2022-11-06T04:08:28.451Z,71.40
2022-11-06T04:13:52.433Z,71.50
2022-11-06T04:18:57.109Z,71.60
2022-11-06T04:24:39.959Z,71.80
2022-11-06T04:29:55.795Z,71.80
2022-11-06T04:35:06.972Z,71.70
2022-11-06T04:40:14.223Z,71.70
2022-11-06T04:45:24.718Z,71.70
2022-11-06T04:50:31.784Z,71.70
2022-11-06T04:55:45.772Z,71.70
2022-11-06T05:00:51.521Z,71.90
2022-11-06T05:05:56.298Z,71.90
2022-11-06T05:10:59.674Z,71.70
2022-11-06T05:16:03.120Z,71.30
2022-11-06T05:21:25.542Z,71.40
2022-11-06T05:26:28.928Z,71.60
2022-11-06T05:31:35.213Z,71.60
2022-11-06T05:36:39.972Z,71.60
2022-11-06T05:41:43.414Z,71.80
2022-11-06T05:46:49.531Z,71.60
2022-11-06T05:51:54.716Z,71.60
2022-11-06T05:56:58.320Z,71.70
2022-11-06T06:02:01.825Z,71.70
2022-11-06T06:07:06.594Z,71.70
2022-11-06T06:12:12.066Z,71.70
2022-11-06T06:17:15.730Z,71.80
2022-11-06T06:22:20.466Z,71.90
2022-11-06T06:27:25.862Z,73.00
2022-11-06T06:32:29.204Z,72.00
2022-11-06T06:37:34.240Z,72.00
2022-11-06T06:42:37.611Z,72.10
2022-11-06T06:47:41.036Z,72.00
2022-11-06T06:52:45.824Z,72.00
2022-11-06T06:57:49.260Z,71.90
2022-11-06T07:02:52.675Z,72.10
2022-11-06T07:07:58.070Z,72.40
2022-11-06T07:13:02.621Z,72.40
2022-11-06T07:18:07.172Z,72.40
2022-11-06T07:23:11.920Z,72.40
2022-11-06T07:28:15.957Z,72.50
2022-11-06T07:33:19.816Z,72.60
2022-11-06T07:38:24.479Z,72.70
2022-11-06T07:43:27.884Z,73.00
2022-11-06T07:48:32.156Z,73.00
2022-11-06T07:53:38.227Z,73.20
2022-11-06T07:58:41.688Z,73.40
2022-11-06T08:03:45.305Z,73.50
2022-11-06T08:08:51.839Z,74.00
2022-11-06T08:14:00.469Z,75.30
2022-11-06T08:19:04.048Z,74.60
2022-11-06T08:24:09.035Z,74.60
2022-11-06T08:29:12.365Z,74.70
2022-11-06T08:34:15.817Z,74.80
2022-11-06T08:39:20.522Z,75.10
2022-11-06T08:44:25.294Z,75.40
2022-11-06T08:49:28.653Z,75.00
2022-11-06T08:54:33.370Z,75.90
2022-11-06T08:59:37.817Z,75.00
2022-11-06T09:04:41.713Z,74.90
2022-11-06T09:09:46.416Z,75.00
2022-11-06T09:14:49.784Z,75.00
2022-11-06T09:19:53.204Z,75.00
2022-11-06T09:25:03.616Z,75.20
2022-11-06T09:30:08.841Z,75.40
2022-11-06T09:35:12.199Z,75.50
2022-11-06T09:40:22.621Z,75.50
2022-11-06T09:45:28.987Z,75.60
2022-11-06T09:50:36.669Z,75.70
2022-11-06T09:55:44.165Z,75.80
2022-11-06T10:00:49.019Z,75.90
2022-11-06T10:05:54.955Z,75.90
2022-11-06T10:11:05.519Z,75.80
2022-11-06T10:16:15.546Z,75.90
2022-11-06T10:21:25.932Z,75.80
2022-11-06T10:26:37.875Z,76.90
2022-11-06T10:31:52.180Z,75.80
2022-11-06T10:37:01.825Z,75.60
2022-11-06T10:42:12.370Z,75.60
2022-11-06T10:47:20.582Z,75.40
2022-11-06T10:52:46.973Z,75.20
2022-11-06T10:57:57.397Z,75.00
2022-11-06T11:03:02.458Z,73.90
2022-11-06T11:08:06.110Z,73.50
2022-11-06T11:13:21.610Z,72.90
2022-11-06T11:18:31.060Z,73.00
2022-11-06T11:23:34.490Z,72.90
2022-11-06T11:28:41.109Z,72.90
2022-11-06T11:33:52.394Z,72.20
2022-11-06T11:38:56.051Z,72.20
2022-11-06T11:44:08.036Z,71.90
2022-11-06T11:49:27.552Z,71.20
2022-11-06T11:54:34.316Z,70.80
2022-11-06T11:59:46.178Z,70.80
2022-11-06T12:04:53.228Z,70.80
2022-11-06T12:09:57.033Z,70.80
2022-11-06T12:15:17.676Z,71.50
2022-11-06T12:20:25.369Z,69.90
2022-11-06T12:25:34.224Z,69.60
2022-11-06T12:30:42.866Z,68.80
2022-11-06T12:35:50.389Z,67.70
2022-11-06T12:41:00.330Z,67.60
2022-11-06T12:46:26.808Z,67.60
2022-11-06T12:51:42.612Z,67.20
2022-11-06T12:56:55.683Z,66.90
2022-11-06T13:02:05.639Z,66.80
2022-11-06T13:07:41.876Z,66.50
2022-11-06T13:12:55.126Z,66.30
2022-11-06T13:18:07.164Z,66.00
2022-11-06T13:23:17.732Z,65.30
2022-11-06T13:28:30.743Z,65.80
2022-11-06T13:33:37.390Z,65.60
2022-11-06T13:38:44.292Z,65.00
2022-11-06T13:43:53.791Z,64.60
2022-11-06T13:49:09.951Z,64.60
2022-11-06T13:54:23.247Z,64.10
2022-11-06T13:59:41.515Z,63.10
2022-11-06T14:05:25.490Z,63.20
2022-11-06T14:10:34.699Z,63.20
2022-11-06T14:15:41.951Z,63.40
2022-11-06T14:20:46.939Z,63.30
2022-11-06T14:26:01.476Z,63.20
2022-11-06T14:31:12.360Z,63.20
2022-11-06T14:36:33.244Z,62.90
2022-11-06T14:41:54.404Z,63.20
2022-11-06T14:47:00.699Z,63.30
2022-11-06T14:52:08.229Z,64.20
2022-11-06T14:57:19.575Z,63.20
2022-11-06T15:02:25.692Z,63.10
2022-11-06T15:08:15.662Z,63.10
2022-11-06T15:13:33.135Z,63.10
2022-11-06T15:18:37.633Z,63.20
2022-11-06T15:23:44.132Z,63.50
2022-11-06T15:28:57.134Z,63.50
2022-11-06T15:34:03.546Z,63.60
2022-11-06T15:39:32.638Z,63.70
2022-11-06T15:44:41.184Z,64.00
2022-11-06T15:49:44.824Z,64.10
2022-11-06T15:54:49.248Z,64.50
2022-11-06T16:00:09.242Z,64.90
2022-11-06T16:05:12.889Z,65.10
2022-11-06T16:10:17.519Z,65.10
2022-11-06T16:15:47.689Z,65.10
2022-11-06T16:20:54.178Z,65.20
2022-11-06T16:26:08.822Z,66.30
2022-11-06T16:31:18.938Z,65.40
2022-11-06T16:36:22.929Z,65.30
2022-11-06T16:42:00.840Z,65.50
2022-11-06T16:47:17.376Z,65.70
2022-11-06T16:52:24.261Z,65.70
2022-11-06T16:57:30.426Z,65.70
2022-11-06T17:02:38.003Z,65.80
2022-11-06T17:07:42.274Z,65.90
2022-11-06T17:12:45.866Z,66.00
2022-11-06T17:17:55.120Z,66.00
2022-11-06T17:22:58.637Z,66.00
2022-11-06T17:28:02.023Z,66.00
2022-11-06T17:33:06.947Z,66.20
2022-11-06T17:38:13.704Z,66.30
2022-11-06T17:43:17.708Z,66.20
2022-11-06T17:48:22.890Z,66.10
2022-11-06T17:53:26.266Z,66.20
2022-11-06T17:58:29.641Z,66.20
2022-11-06T18:03:36.681Z,66.50
2022-11-06T18:08:40.663Z,66.70
2022-11-06T18:13:45.346Z,67.70
2022-11-06T18:18:50.396Z,66.80
2022-11-06T18:23:53.810Z,66.90
2022-11-06T18:28:57.400Z,67.00
2022-11-06T18:34:03.467Z,66.90
2022-11-06T18:39:08.030Z,66.90
2022-11-06T18:44:11.504Z,66.90
2022-11-06T18:49:16.624Z,67.10
2022-11-06T18:54:21.269Z,67.00
2022-11-06T18:59:24.763Z,67.10
2022-11-06T19:04:29.597Z,67.00
2022-11-06T19:09:33.076Z,67.30
2022-11-06T19:14:37.498Z,67.40
2022-11-06T19:19:43.416Z,67.40
2022-11-06T19:24:47.329Z,67.30
2022-11-06T19:29:51.542Z,67.40
2022-11-06T19:34:56.876Z,67.20
2022-11-06T19:40:05.401Z,67.50
2022-11-06T19:45:10.908Z,67.40
2022-11-06T19:50:17.579Z,67.50
2022-11-06T19:55:27.892Z,67.60
2022-11-06T20:00:31.510Z,67.70
2022-11-06T20:05:40.297Z,67.80
2022-11-06T20:10:44.247Z,67.70
2022-11-06T20:15:48.065Z,68.00
2022-11-06T20:20:52.896Z,68.10
2022-11-06T20:25:57.984Z,69.10
2022-11-06T20:31:06.320Z,68.20
2022-11-06T20:36:13.147Z,68.40
2022-11-06T20:41:17.944Z,68.20
2022-11-06T20:46:22.494Z,68.20
2022-11-06T20:51:29.410Z,68.40
2022-11-06T20:56:32.826Z,68.60
2022-11-06T21:01:36.347Z,68.60
2022-11-06T21:06:41.370Z,69.70
2022-11-06T21:11:44.851Z,68.80
2022-11-06T21:16:48.956Z,69.00
2022-11-06T21:21:56.743Z,69.00
2022-11-06T21:27:00.411Z,69.00
2022-11-06T21:32:03.813Z,69.10
2022-11-06T21:37:08.544Z,69.20
2022-11-06T21:42:12.002Z,69.20
2022-11-06T21:47:15.683Z,69.40
2022-11-06T21:52:38.642Z,69.30
2022-11-06T21:57:42.012Z,69.30
2022-11-06T22:02:45.772Z,69.30
2022-11-06T22:07:50.669Z,69.30
2022-11-06T22:12:54.551Z,69.50
2022-11-06T22:17:58.021Z,69.60
2022-11-06T22:23:02.797Z,69.60
2022-11-06T22:28:06.594Z,69.70
2022-11-06T22:33:10.467Z,69.80
2022-11-06T22:38:15.445Z,70.30
2022-11-06T22:43:18.867Z,70.40
2022-11-06T22:48:22.774Z,70.80
2022-11-06T22:53:27.499Z,71.10
2022-11-06T22:58:32.097Z,71.30
2022-11-06T23:03:35.889Z,71.30
2022-11-06T23:08:46.567Z,71.60
2022-11-06T23:13:51.112Z,72.00
2022-11-06T23:18:54.852Z,72.00
2022-11-06T23:23:59.582Z,72.00
2022-11-06T23:29:03.447Z,71.70
2022-11-06T23:34:06.910Z,71.50
2022-11-06T23:39:11.707Z,71.20
2022-11-06T23:44:32.789Z,71.20
2022-11-06T23:49:36.425Z,71.20
2022-11-06T23:54:41.548Z,71.30
2022-11-06T23:59:44.957Z,71.20
